createdAt,value
2017-05-12T04:40:13.793Z,942.07
2017-05-12T04:41:15.629Z,942.08
2017-05-12T04:42:15.954Z,942.14
2017-05-12T04:43:15.728Z,942.10
2017-05-12T04:44:15.795Z,942.17
2017-05-12T04:45:15.444Z,942.25
2017-05-12T04:46:16.278Z,942.24
2017-05-12T04:47:16.533Z,942.24
2017-05-12T04:48:15.614Z,942.27
2017-05-12T04:49:18.109Z,942.20
2017-05-12T04:50:16.240Z,942.22
2017-05-12T04:51:16.548Z,942.25
2017-05-12T04:52:16.154Z,942.25
2017-05-12T04:53:16.255Z,942.23
2017-05-12T04:54:16.351Z,942.26
2017-05-12T04:55:17.718Z,942.25
2017-05-12T04:56:16.126Z,942.27
2017-05-12T04:57:15.875Z,942.31
2017-05-12T04:58:16.675Z,942.30
2017-05-12T04:59:15.251Z,942.34
2017-05-12T05:00:16.602Z,942.33
2017-05-12T05:01:15.555Z,942.30
2017-05-12T05:02:16.914Z,942.31
2017-05-12T05:03:15.926Z,942.38
2017-05-12T05:04:18.944Z,942.39
2017-05-12T05:05:16.861Z,942.37
2017-05-12T05:06:20.063Z,942.33
2017-05-12T05:07:14.174Z,942.43
2017-05-12T05:08:18.144Z,942.39
2017-05-12T05:09:16.581Z,942.38
2017-05-12T05:10:17.609Z,942.44
2017-05-12T05:11:15.208Z,942.45
2017-05-12T05:12:15.915Z,942.42
2017-05-12T05:13:16.034Z,942.51
2017-05-12T05:14:16.793Z,942.46
2017-05-12T05:15:15.241Z,942.48
2017-05-12T05:16:17.002Z,942.54
2017-05-12T05:17:18.185Z,942.54
2017-05-12T05:18:16.779Z,942.55
2017-05-12T05:19:15.280Z,942.55
2017-05-12T05:20:16.695Z,942.62
2017-05-12T05:21:16.929Z,942.63
2017-05-12T05:22:15.462Z,942.62
2017-05-12T05:23:15.322Z,942.64
2017-05-12T05:24:15.434Z,942.67
2017-05-12T05:25:15.936Z,942.65
2017-05-12T05:26:16.256Z,942.67
2017-05-12T05:27:16.106Z,942.74
2017-05-12T05:28:15.634Z,942.71
2017-05-12T05:29:15.469Z,942.71
2017-05-12T05:30:15.756Z,942.76
2017-05-12T05:31:18.449Z,942.78
2017-05-12T05:32:14.506Z,942.77
2017-05-12T05:33:15.725Z,942.78
2017-05-12T05:34:16.425Z,942.80
2017-05-12T05:35:18.417Z,942.83
2017-05-12T05:36:17.779Z,942.82
2017-05-12T05:37:15.770Z,942.83
2017-05-12T05:38:16.138Z,942.87
2017-05-12T05:39:15.233Z,942.87
2017-05-12T05:40:14.601Z,942.89
2017-05-12T05:41:15.994Z,942.92
2017-05-12T05:42:16.559Z,942.92
2017-05-12T05:43:16.028Z,942.96
2017-05-12T05:44:15.753Z,942.95
2017-05-12T05:45:13.984Z,942.97
2017-05-12T05:46:16.339Z,942.98
2017-05-12T05:47:15.186Z,942.97
2017-05-12T05:48:16.545Z,942.97
2017-05-12T05:49:15.734Z,943.03
2017-05-12T05:50:15.911Z,942.97
2017-05-12T05:51:14.241Z,943.00
2017-05-12T05:52:16.409Z,943.01
2017-05-12T05:53:15.663Z,943.03
2017-05-12T05:54:16.910Z,943.05
2017-05-12T05:55:15.610Z,943.01
2017-05-12T05:56:15.246Z,943.06
2017-05-12T05:57:15.857Z,943.06
2017-05-12T05:58:15.702Z,943.01
2017-05-12T05:59:17.003Z,943.03
2017-05-12T06:00:16.944Z,943.01
2017-05-12T06:01:22.203Z,942.98
2017-05-12T06:02:16.300Z,942.99
2017-05-12T06:03:15.649Z,942.96
2017-05-12T06:04:14.734Z,942.99
2017-05-12T06:05:15.572Z,942.98
2017-05-12T06:06:15.929Z,942.91
2017-05-12T06:07:23.043Z,942.94
2017-05-12T06:08:16.250Z,942.86
2017-05-12T06:09:16.490Z,942.86
2017-05-12T06:10:14.122Z,942.88
2017-05-12T06:11:16.253Z,943.05
2017-05-12T06:12:18.706Z,943.10
2017-05-12T06:13:15.916Z,943.11
2017-05-12T06:14:12.033Z,943.22
2017-05-12T06:15:14.530Z,943.21
2017-05-12T06:16:14.661Z,943.22
2017-05-12T06:17:14.794Z,943.26
2017-05-12T06:18:13.893Z,943.20
2017-05-12T06:19:14.405Z,943.22
2017-05-12T06:20:14.591Z,943.27
2017-05-12T06:21:13.937Z,943.24
2017-05-12T06:22:14.024Z,943.25
2017-05-12T06:23:15.199Z,943.20
2017-05-12T06:24:14.509Z,943.25
2017-05-12T06:25:15.154Z,943.24
2017-05-12T06:26:14.328Z,943.22
2017-05-12T06:27:14.517Z,943.19
2017-05-12T06:28:15.534Z,943.22
2017-05-12T06:29:16.170Z,943.19
2017-05-12T06:30:14.559Z,943.23
2017-05-12T06:31:15.565Z,943.19
2017-05-12T06:32:12.894Z,943.22
2017-05-12T06:33:15.212Z,943.24
2017-05-12T06:34:14.519Z,943.18
2017-05-12T06:35:15.115Z,943.20
2017-05-12T06:36:14.314Z,943.21
2017-05-12T06:37:15.133Z,943.24
2017-05-12T06:38:12.452Z,943.29
2017-05-12T06:39:14.313Z,943.21
2017-05-12T06:40:15.210Z,943.23
2017-05-12T06:41:15.759Z,943.22
2017-05-12T06:42:15.482Z,943.22
2017-05-12T06:43:15.109Z,943.24
2017-05-12T06:44:15.518Z,943.30
2017-05-12T06:45:15.261Z,943.28
2017-05-12T06:46:14.951Z,943.29
2017-05-12T06:47:15.071Z,943.27
2017-05-12T06:48:15.487Z,943.31
2017-05-12T06:49:14.840Z,943.27
2017-05-12T06:50:14.352Z,943.28
2017-05-12T06:51:15.221Z,943.29
2017-05-12T06:52:15.734Z,943.29
2017-05-12T06:53:14.159Z,943.30
2017-05-12T06:54:22.445Z,943.28
2017-05-12T06:55:15.063Z,943.26
2017-05-12T06:56:14.569Z,943.25
2017-05-12T06:57:14.194Z,943.28
2017-05-12T06:58:15.005Z,943.34
2017-05-12T06:59:14.656Z,943.31
2017-05-12T07:00:17.379Z,943.28
2017-05-12T07:01:14.525Z,943.30
2017-05-12T07:02:15.267Z,943.23
2017-05-12T07:03:14.875Z,943.26
2017-05-12T07:04:14.376Z,943.26
2017-05-12T07:05:14.834Z,943.23
2017-05-12T07:06:14.117Z,943.31
2017-05-12T07:07:14.356Z,943.27
2017-05-12T07:08:11.889Z,943.26
2017-05-12T07:09:14.989Z,943.25
2017-05-12T07:10:17.789Z,943.24
2017-05-12T07:11:12.619Z,943.27
2017-05-12T07:12:15.200Z,943.30
2017-05-12T07:13:16.630Z,943.33
2017-05-12T07:14:14.179Z,943.32
2017-05-12T07:15:14.541Z,943.35
2017-05-12T07:16:15.087Z,943.34
2017-05-12T07:17:14.361Z,943.35
2017-05-12T07:18:14.877Z,943.37
2017-05-12T07:19:14.358Z,943.40
2017-05-12T07:20:14.802Z,943.35
2017-05-12T07:21:14.634Z,943.39
2017-05-12T07:22:15.420Z,943.37
2017-05-12T07:23:14.788Z,943.33
2017-05-12T07:24:14.582Z,943.32
2017-05-12T07:25:14.960Z,943.36
2017-05-12T07:26:14.608Z,943.32
2017-05-12T07:27:15.647Z,943.35
2017-05-12T07:28:14.014Z,943.35
2017-05-12T07:29:14.220Z,943.38
2017-05-12T07:30:14.525Z,943.39
2017-05-12T07:31:15.021Z,943.41
2017-05-12T07:32:14.376Z,943.39
2017-05-12T07:33:15.380Z,943.34
2017-05-12T07:34:15.565Z,943.36
2017-05-12T07:35:15.016Z,943.35
2017-05-12T07:36:14.860Z,943.34
2017-05-12T07:37:13.933Z,943.29
2017-05-12T07:38:14.435Z,943.34
2017-05-12T07:39:14.749Z,943.33
2017-05-12T07:40:12.584Z,943.35
2017-05-12T07:41:14.538Z,943.36
2017-05-12T07:42:14.750Z,943.38
2017-05-12T07:43:13.974Z,943.35
2017-05-12T07:44:14.406Z,943.27
2017-05-12T07:45:14.515Z,943.34
2017-05-12T07:46:16.044Z,943.30
2017-05-12T07:47:15.023Z,943.32
2017-05-12T07:48:15.268Z,943.31
2017-05-12T07:49:12.154Z,943.35
2017-05-12T07:50:15.580Z,943.33
2017-05-12T07:51:16.036Z,943.34
2017-05-12T07:52:15.271Z,943.30
2017-05-12T07:53:13.314Z,943.32
2017-05-12T07:54:15.326Z,943.34
2017-05-12T07:55:15.770Z,943.31
2017-05-12T07:56:15.005Z,943.30
2017-05-12T07:57:15.807Z,943.29
2017-05-12T07:58:14.815Z,943.28
2017-05-12T07:59:14.793Z,943.31
2017-05-12T08:00:15.168Z,943.32
2017-05-12T08:01:16.956Z,943.33
2017-05-12T08:02:15.693Z,943.30
2017-05-12T08:03:14.881Z,943.33
2017-05-12T08:04:14.799Z,943.32
2017-05-12T08:05:15.348Z,943.36
2017-05-12T08:06:15.528Z,943.40
2017-05-12T08:07:16.453Z,943.39
2017-05-12T08:08:16.401Z,943.37
2017-05-12T08:09:16.176Z,943.41
2017-05-12T08:10:15.873Z,943.38
2017-05-12T08:11:11.944Z,943.41
2017-05-12T08:12:12.045Z,943.36
2017-05-12T08:13:18.917Z,943.36
2017-05-12T08:14:15.771Z,943.37
2017-05-12T08:15:15.146Z,943.40
2017-05-12T08:16:15.206Z,943.37
2017-05-12T08:17:16.147Z,943.40
2017-05-12T08:18:14.919Z,943.44
2017-05-12T08:19:14.985Z,943.41
2017-05-12T08:20:15.143Z,943.38
2017-05-12T08:21:15.206Z,943.41
2017-05-12T08:22:15.448Z,943.42
2017-05-12T08:23:16.320Z,943.43
2017-05-12T08:24:15.474Z,943.43
2017-05-12T08:25:16.382Z,943.44
2017-05-12T08:26:15.726Z,943.46
2017-05-12T08:27:15.319Z,943.44
2017-05-12T08:28:27.349Z,943.43
2017-05-12T08:29:15.618Z,943.41
2017-05-12T08:30:14.986Z,943.40
2017-05-12T08:31:12.496Z,943.40
2017-05-12T08:32:15.558Z,943.41
2017-05-12T08:33:15.842Z,943.44
2017-05-12T08:34:14.841Z,943.47
2017-05-12T08:35:15.278Z,943.49
2017-05-12T08:36:15.601Z,943.45
2017-05-12T08:37:16.723Z,943.45
2017-05-12T08:38:14.904Z,943.44
2017-05-12T08:39:12.842Z,943.44
2017-05-12T08:40:15.477Z,943.47
2017-05-12T08:41:15.730Z,943.51
2017-05-12T08:42:14.708Z,943.43
2017-05-12T08:43:15.225Z,943.43
2017-05-12T08:44:12.953Z,943.44
2017-05-12T08:45:16.222Z,943.46
2017-05-12T08:46:16.212Z,943.43
2017-05-12T08:47:15.418Z,943.43
2017-05-12T08:48:15.580Z,943.44
2017-05-12T08:49:13.404Z,943.44
2017-05-12T08:50:17.020Z,943.43
2017-05-12T08:51:15.491Z,943.46
2017-05-12T08:52:16.868Z,943.43
2017-05-12T08:53:15.631Z,943.44
2017-05-12T08:54:15.106Z,943.48
2017-05-12T08:55:15.347Z,943.43
2017-05-12T08:56:15.741Z,943.45
2017-05-12T08:57:15.332Z,943.39
2017-05-12T08:58:15.680Z,943.43
2017-05-12T08:59:14.963Z,943.46
2017-05-12T09:00:15.575Z,943.44
2017-05-12T09:01:15.617Z,943.40
2017-05-12T09:02:16.695Z,943.46
2017-05-12T09:03:16.165Z,943.40
2017-05-12T09:04:15.669Z,943.41
2017-05-12T09:05:14.561Z,943.41
2017-05-12T09:06:12.950Z,943.42
2017-05-12T09:07:15.506Z,943.45
2017-05-12T09:08:16.437Z,943.38
2017-05-12T09:09:15.511Z,943.41
2017-05-12T09:10:13.205Z,943.42
2017-05-12T09:11:15.379Z,943.44
2017-05-12T09:12:15.607Z,943.39
2017-05-12T09:13:15.526Z,943.40
2017-05-12T09:14:16.358Z,943.44
2017-05-12T09:15:15.530Z,943.40
2017-05-12T09:16:18.265Z,943.35
2017-05-12T09:17:15.524Z,943.36
2017-05-12T09:18:16.172Z,943.32
2017-05-12T09:19:15.177Z,943.33
2017-05-12T09:20:15.676Z,943.35
2017-05-12T09:21:14.780Z,943.35
2017-05-12T09:22:15.415Z,943.36
2017-05-12T09:23:12.470Z,943.36
2017-05-12T09:24:16.064Z,943.38
2017-05-12T09:25:15.336Z,943.36
2017-05-12T09:26:16.585Z,943.36
2017-05-12T09:27:15.822Z,943.36
2017-05-12T09:28:15.007Z,943.34
2017-05-12T09:29:15.731Z,943.37
2017-05-12T09:30:15.583Z,943.37
2017-05-12T09:31:15.876Z,943.35
2017-05-12T09:32:15.305Z,943.39
2017-05-12T09:33:15.528Z,943.36
2017-05-12T09:34:15.819Z,943.31
2017-05-12T09:35:15.061Z,943.35
2017-05-12T09:36:17.705Z,943.37
2017-05-12T09:37:14.861Z,943.35
2017-05-12T09:38:15.097Z,943.36
2017-05-12T09:39:15.216Z,943.36
2017-05-12T09:40:16.231Z,943.29
2017-05-12T09:41:15.347Z,943.31
2017-05-12T09:42:15.973Z,943.35
2017-05-12T09:43:15.227Z,943.36
2017-05-12T09:44:15.729Z,943.45
2017-05-12T09:45:13.153Z,943.44
2017-05-12T09:46:11.727Z,943.41
2017-05-12T09:47:15.923Z,943.41
2017-05-12T09:48:15.360Z,943.43
2017-05-12T09:49:11.947Z,943.42
2017-05-12T09:50:15.403Z,943.36
2017-05-12T09:51:17.300Z,943.37
2017-05-12T09:52:16.896Z,943.43
2017-05-12T09:53:15.479Z,943.41
2017-05-12T09:54:15.537Z,943.43
2017-05-12T09:55:16.502Z,943.42
2017-05-12T09:56:11.652Z,943.44
2017-05-12T09:57:16.220Z,943.36
2017-05-12T09:58:15.750Z,943.42
2017-05-12T09:59:15.194Z,943.42
2017-05-12T10:00:16.179Z,943.42
2017-05-12T10:01:15.465Z,943.45
2017-05-12T10:02:15.939Z,943.45
2017-05-12T10:03:16.602Z,943.48
2017-05-12T10:04:16.053Z,943.42
2017-05-12T10:05:15.320Z,943.43
2017-05-12T10:06:16.126Z,943.46
2017-05-12T10:07:15.782Z,943.42
2017-05-12T10:08:15.164Z,943.40
2017-05-12T10:09:15.918Z,943.43
2017-05-12T10:10:15.511Z,943.41
2017-05-12T10:11:16.183Z,943.41
2017-05-12T10:12:15.285Z,943.39
2017-05-12T10:13:15.418Z,943.42
2017-05-12T10:14:15.920Z,943.38
2017-05-12T10:15:16.095Z,943.38
2017-05-12T10:16:15.509Z,943.38
2017-05-12T10:17:16.467Z,943.34
2017-05-12T10:18:16.420Z,943.35
2017-05-12T10:19:16.688Z,943.39
2017-05-12T10:20:17.240Z,943.44
2017-05-12T10:21:17.064Z,943.34
2017-05-12T10:22:15.772Z,943.32
2017-05-12T10:23:15.339Z,943.36
2017-05-12T10:24:16.508Z,943.39
2017-05-12T10:25:16.096Z,943.41
2017-05-12T10:26:12.541Z,943.35
2017-05-12T10:27:16.045Z,943.38
2017-05-12T10:28:15.515Z,943.34
2017-05-12T10:29:16.300Z,943.36
2017-05-12T10:30:17.039Z,943.40
2017-05-12T10:31:12.717Z,943.41
2017-05-12T10:32:15.602Z,943.33
2017-05-12T10:33:16.038Z,943.28
2017-05-12T10:34:15.123Z,943.28
2017-05-12T10:35:15.504Z,943.26
2017-05-12T10:36:16.294Z,943.25
2017-05-12T10:37:13.791Z,943.27
2017-05-12T10:38:14.975Z,943.26
2017-05-12T10:39:16.194Z,943.22
2017-05-12T10:40:15.390Z,943.22
2017-05-12T10:41:15.705Z,943.23
2017-05-12T10:42:15.118Z,943.30
2017-05-12T10:43:15.513Z,943.28
2017-05-12T10:44:16.390Z,943.33
2017-05-12T10:45:15.670Z,943.30
2017-05-12T10:46:15.328Z,943.33
2017-05-12T10:47:15.692Z,943.30
2017-05-12T10:48:15.746Z,943.28
2017-05-12T10:49:15.157Z,943.25
2017-05-12T10:50:17.197Z,943.27
2017-05-12T10:51:12.689Z,943.24
2017-05-12T10:52:15.927Z,943.21
2017-05-12T10:53:15.980Z,943.22
2017-05-12T10:54:16.213Z,943.20
2017-05-12T10:55:15.572Z,943.22
2017-05-12T10:56:15.702Z,943.23
2017-05-12T10:57:15.107Z,943.25
2017-05-12T10:58:15.663Z,943.24
2017-05-12T10:59:14.785Z,943.24
2017-05-12T11:00:15.136Z,943.24
2017-05-12T11:01:16.279Z,943.22
2017-05-12T11:02:16.846Z,943.28
2017-05-12T11:03:15.123Z,943.22
2017-05-12T11:04:12.329Z,943.25
2017-05-12T11:05:15.486Z,943.21
2017-05-12T11:06:16.027Z,943.23
2017-05-12T11:07:15.316Z,943.21
2017-05-12T11:08:13.103Z,943.17
2017-05-12T11:09:15.464Z,943.16
2017-05-12T11:10:16.037Z,943.17
2017-05-12T11:11:15.952Z,943.17
2017-05-12T11:12:12.545Z,943.18
2017-05-12T11:13:15.340Z,943.18
2017-05-12T11:14:15.848Z,943.19
2017-05-12T11:15:14.949Z,943.20
2017-05-12T11:16:15.504Z,943.18
2017-05-12T11:17:15.981Z,943.19
2017-05-12T11:18:11.036Z,943.17
2017-05-12T11:19:15.984Z,943.17
2017-05-12T11:20:16.857Z,943.14
2017-05-12T11:21:14.976Z,943.14
2017-05-12T11:22:13.092Z,943.18
2017-05-12T11:23:14.704Z,943.21
2017-05-12T11:24:15.941Z,943.18
2017-05-12T11:25:10.995Z,943.20
2017-05-12T11:26:15.076Z,943.20
2017-05-12T11:27:15.973Z,943.19
2017-05-12T11:28:15.792Z,943.13
2017-05-12T11:29:15.426Z,943.14
2017-05-12T11:30:15.688Z,943.14
2017-05-12T11:31:15.489Z,943.15
2017-05-12T11:32:16.017Z,943.08
2017-05-12T11:33:15.125Z,943.11
2017-05-12T11:34:15.530Z,943.16
2017-05-12T11:35:15.275Z,943.09
2017-05-12T11:36:15.683Z,943.07
2017-05-12T11:37:13.281Z,943.11
2017-05-12T11:38:15.054Z,943.10
2017-05-12T11:39:15.640Z,943.08
2017-05-12T11:40:15.396Z,943.15
2017-05-12T11:41:15.321Z,943.10
2017-05-12T11:42:16.055Z,943.10
2017-05-12T11:43:16.113Z,943.11
2017-05-12T11:44:15.209Z,943.14
2017-05-12T11:45:15.092Z,943.09
2017-05-12T11:46:16.418Z,943.11
2017-05-12T11:47:16.593Z,943.14
2017-05-12T11:48:16.959Z,943.10
2017-05-12T11:49:12.749Z,943.17
2017-05-12T11:50:12.933Z,943.13
2017-05-12T11:51:15.431Z,943.13
2017-05-12T11:52:11.482Z,943.09
2017-05-12T11:53:15.222Z,943.15
2017-05-12T11:54:16.375Z,943.15
2017-05-12T11:55:15.576Z,943.15
2017-05-12T11:56:17.020Z,943.14
2017-05-12T11:57:16.560Z,943.15
2017-05-12T11:58:15.904Z,943.17
2017-05-12T11:59:15.583Z,943.17
2017-05-12T12:00:15.612Z,943.12
2017-05-12T12:01:16.741Z,943.13
2017-05-12T12:02:15.772Z,943.12
2017-05-12T12:03:15.087Z,943.15
2017-05-12T12:04:15.402Z,943.13
2017-05-12T12:05:15.803Z,943.13
2017-05-12T12:06:14.843Z,943.18
2017-05-12T12:07:15.081Z,943.14
2017-05-12T12:08:15.124Z,943.13
2017-05-12T12:09:15.682Z,943.15
2017-05-12T12:10:15.039Z,943.13
2017-05-12T12:11:16.354Z,943.16
2017-05-12T12:12:15.802Z,943.17
2017-05-12T12:13:15.137Z,943.17
2017-05-12T12:14:15.182Z,943.16
2017-05-12T12:15:13.218Z,943.17
2017-05-12T12:16:14.848Z,943.19
2017-05-12T12:17:11.930Z,943.18
2017-05-12T12:18:14.997Z,943.17
2017-05-12T12:19:16.127Z,943.17
2017-05-12T12:20:16.025Z,943.16
2017-05-12T12:21:15.232Z,943.14
2017-05-12T12:22:13.541Z,943.14
2017-05-12T12:23:15.592Z,943.13
2017-05-12T12:24:16.644Z,943.13
2017-05-12T12:25:16.335Z,943.14
2017-05-12T12:26:15.382Z,943.19
2017-05-12T12:27:16.091Z,943.23
2017-05-12T12:28:16.123Z,943.22
2017-05-12T12:29:15.616Z,943.20
2017-05-12T12:30:13.221Z,943.11
2017-05-12T12:31:15.450Z,943.16
2017-05-12T12:32:15.485Z,943.14
2017-05-12T12:33:15.901Z,943.14
2017-05-12T12:34:14.898Z,943.08
2017-05-12T12:35:15.142Z,943.11
2017-05-12T12:36:15.067Z,943.11
2017-05-12T12:37:15.776Z,943.10
2017-05-12T12:38:15.059Z,943.07
2017-05-12T12:39:15.985Z,943.06
2017-05-12T12:40:14.833Z,943.06
2017-05-12T12:41:15.284Z,943.04
2017-05-12T12:42:15.932Z,943.03
2017-05-12T12:43:14.843Z,943.07
2017-05-12T12:44:15.535Z,943.03
2017-05-12T12:45:16.134Z,943.05
2017-05-12T12:46:15.223Z,942.99
2017-05-12T12:47:15.393Z,942.99
2017-05-12T12:48:16.701Z,943.02
2017-05-12T12:49:14.839Z,943.02
2017-05-12T12:50:16.090Z,942.98
2017-05-12T12:51:15.222Z,942.97
2017-05-12T12:52:15.981Z,942.96
2017-05-12T12:53:16.320Z,942.99
2017-05-12T12:54:15.737Z,942.97
2017-05-12T12:55:14.861Z,942.97
2017-05-12T12:56:15.479Z,942.97
2017-05-12T12:57:15.775Z,942.95
2017-05-12T12:58:13.104Z,942.91
2017-05-12T12:59:15.684Z,942.92
2017-05-12T13:00:13.376Z,942.92
2017-05-12T13:01:14.827Z,942.87
2017-05-12T13:02:13.249Z,942.83
2017-05-12T13:03:15.613Z,942.89
2017-05-12T13:04:15.860Z,942.89
2017-05-12T13:05:15.178Z,942.91
2017-05-12T13:06:15.837Z,942.85
2017-05-12T13:07:14.986Z,942.87
2017-05-12T13:08:15.369Z,942.87
2017-05-12T13:09:11.687Z,942.83
2017-05-12T13:10:15.722Z,942.85
2017-05-12T13:11:15.564Z,942.84
2017-05-12T13:12:15.913Z,942.78
2017-05-12T13:13:15.612Z,942.73
2017-05-12T13:14:13.324Z,942.75
2017-05-12T13:15:11.923Z,942.73
2017-05-12T13:16:15.272Z,942.71
2017-05-12T13:17:15.730Z,942.64
2017-05-12T13:18:15.171Z,942.67
2017-05-12T13:19:15.164Z,942.66
2017-05-12T13:20:15.612Z,942.63
2017-05-12T13:21:16.245Z,942.65
2017-05-12T13:22:15.985Z,942.66
2017-05-12T13:23:15.913Z,942.60
2017-05-12T13:24:15.935Z,942.62
2017-05-12T13:25:15.325Z,942.63
2017-05-12T13:26:15.490Z,942.60
2017-05-12T13:27:15.841Z,942.60
2017-05-12T13:28:15.076Z,942.54
2017-05-12T13:29:15.019Z,942.54
2017-05-12T13:30:15.646Z,942.57
2017-05-12T13:31:15.286Z,942.54
2017-05-12T13:32:15.744Z,942.52
2017-05-12T13:33:15.102Z,942.53
2017-05-12T13:34:15.439Z,942.53
2017-05-12T13:35:15.018Z,942.53
2017-05-12T13:36:16.226Z,942.57
2017-05-12T13:37:15.354Z,942.57
2017-05-12T13:38:17.826Z,942.54
2017-05-12T13:39:15.074Z,942.52
2017-05-12T13:40:15.370Z,942.49
2017-05-12T13:41:15.741Z,942.50
2017-05-12T13:42:14.990Z,942.44
2017-05-12T13:43:15.192Z,942.45
2017-05-12T13:44:15.481Z,942.46
2017-05-12T13:45:11.346Z,942.45
2017-05-12T13:46:15.129Z,942.44
2017-05-12T13:47:17.044Z,942.46
2017-05-12T13:48:15.541Z,942.46
2017-05-12T13:49:16.812Z,942.47
2017-05-12T13:50:15.726Z,942.47
2017-05-12T13:51:15.825Z,942.45
2017-05-12T13:52:15.319Z,942.43
2017-05-12T13:53:15.470Z,942.42
2017-05-12T13:54:15.633Z,942.44
2017-05-12T13:55:16.738Z,942.40
2017-05-12T13:56:15.162Z,942.39
2017-05-12T13:57:15.225Z,942.35
2017-05-12T13:58:15.221Z,942.35
2017-05-12T13:59:15.767Z,942.35
2017-05-12T14:00:15.018Z,942.34
2017-05-12T14:01:15.875Z,942.34
2017-05-12T14:02:15.132Z,942.29
2017-05-12T14:03:15.776Z,942.23
2017-05-12T14:04:15.007Z,942.24
2017-05-12T14:05:15.467Z,942.22
2017-05-12T14:06:12.631Z,942.25
2017-05-12T14:07:16.237Z,942.20
2017-05-12T14:08:16.284Z,942.20
2017-05-12T14:09:15.575Z,942.21
2017-05-12T14:10:15.720Z,942.19
2017-05-12T14:11:14.947Z,942.20
2017-05-12T14:12:15.281Z,942.17
2017-05-12T14:13:15.687Z,942.18
2017-05-12T14:14:15.210Z,942.18
2017-05-12T14:15:16.192Z,942.16
2017-05-12T14:16:15.928Z,942.16
2017-05-12T14:17:15.543Z,942.12
2017-05-12T14:18:13.076Z,942.16
2017-05-12T14:19:15.190Z,942.16
2017-05-12T14:20:13.095Z,942.15
2017-05-12T14:21:16.163Z,942.18
2017-05-12T14:22:15.486Z,942.22
2017-05-12T14:23:13.255Z,942.18
2017-05-12T14:24:15.252Z,942.16
2017-05-12T14:25:15.883Z,942.14
2017-05-12T14:26:15.232Z,942.11
2017-05-12T14:27:15.798Z,942.14
2017-05-12T14:28:15.051Z,942.14
2017-05-12T14:29:15.353Z,942.17
2017-05-12T14:30:15.322Z,942.15
2017-05-12T14:31:16.309Z,942.13
2017-05-12T14:32:15.338Z,942.14
2017-05-12T14:33:15.524Z,942.13
2017-05-12T14:34:17.933Z,942.08
2017-05-12T14:35:15.279Z,942.05
2017-05-12T14:36:15.649Z,942.07
2017-05-12T14:37:14.916Z,942.06
2017-05-12T14:38:15.037Z,942.04
2017-05-12T14:39:15.481Z,942.01
2017-05-12T14:40:16.202Z,942.00
2017-05-12T14:41:15.415Z,942.04
2017-05-12T14:42:16.214Z,942.02
2017-05-12T14:43:15.760Z,942.02
2017-05-12T14:44:16.250Z,941.99
2017-05-12T14:45:15.861Z,942.03
2017-05-12T14:46:16.073Z,942.08
2017-05-12T14:47:15.118Z,942.04
2017-05-12T14:48:16.587Z,942.05
2017-05-12T14:49:15.471Z,941.94
2017-05-12T14:50:16.414Z,941.98
2017-05-12T14:51:15.815Z,941.97
2017-05-12T14:52:15.359Z,941.97
2017-05-12T14:53:13.355Z,941.95
2017-05-12T14:54:15.350Z,941.99
2017-05-12T14:55:15.598Z,941.96
2017-05-12T14:56:16.049Z,941.98
2017-05-12T14:57:15.982Z,942.01
2017-05-12T14:58:15.189Z,942.00
2017-05-12T14:59:15.213Z,942.02
2017-05-12T15:00:16.023Z,942.00
2017-05-12T15:01:16.012Z,942.02
2017-05-12T15:02:15.058Z,942.08
2017-05-12T15:03:14.830Z,942.03
2017-05-12T15:04:15.283Z,942.04
2017-05-12T15:05:16.547Z,942.00
2017-05-12T15:06:22.022Z,942.01
2017-05-12T15:07:15.131Z,942.03
2017-05-12T15:08:15.697Z,941.99
2017-05-12T15:09:14.759Z,941.98
2017-05-12T15:10:15.761Z,941.97
2017-05-12T15:11:14.770Z,941.98
2017-05-12T15:12:14.932Z,941.99
2017-05-12T15:13:14.750Z,941.98
2017-05-12T15:14:15.019Z,941.97
2017-05-12T15:15:15.182Z,941.98
2017-05-12T15:16:15.861Z,941.96
2017-05-12T15:17:15.339Z,942.02
2017-05-12T15:18:15.802Z,942.02
2017-05-12T15:19:15.182Z,942.03
2017-05-12T15:20:16.091Z,942.07
2017-05-12T15:21:14.962Z,942.02
2017-05-12T15:22:15.307Z,942.06
2017-05-12T15:23:16.019Z,942.05
2017-05-12T15:24:11.408Z,942.07
2017-05-12T15:25:16.432Z,942.08
2017-05-12T15:26:15.701Z,942.10
2017-05-12T15:27:14.728Z,942.09
2017-05-12T15:28:15.649Z,942.07
2017-05-12T15:29:15.553Z,942.08
2017-05-12T15:30:13.439Z,942.10
2017-05-12T15:31:15.383Z,942.10
2017-05-12T15:32:12.889Z,942.11
2017-05-12T15:33:15.532Z,942.08
2017-05-12T15:34:13.191Z,942.11
2017-05-12T15:35:10.772Z,942.10
2017-05-12T15:36:15.288Z,942.15
2017-05-12T15:37:16.161Z,942.14
2017-05-12T15:38:15.574Z,942.13
2017-05-12T15:39:15.619Z,942.11
2017-05-12T15:40:16.742Z,942.13
2017-05-12T15:41:15.468Z,942.13
2017-05-12T15:42:12.617Z,942.17
2017-05-12T15:43:16.615Z,942.19
2017-05-12T15:44:14.753Z,942.21
2017-05-12T15:45:15.011Z,942.19
2017-05-12T15:46:14.749Z,942.18
2017-05-12T15:47:15.481Z,942.21
2017-05-12T15:48:15.593Z,942.20
2017-05-12T15:49:16.008Z,942.20
2017-05-12T15:50:15.052Z,942.23
2017-05-12T15:51:16.152Z,942.22
2017-05-12T15:52:15.083Z,942.22
2017-05-12T15:53:13.828Z,942.19
2017-05-12T15:54:15.303Z,942.25
2017-05-12T15:55:15.611Z,942.25
2017-05-12T15:56:16.157Z,942.26
2017-05-12T15:57:13.772Z,942.26
2017-05-12T15:58:15.661Z,942.24
2017-05-12T15:59:15.271Z,942.27
2017-05-12T16:00:16.209Z,942.26
2017-05-12T16:01:10.899Z,942.28
2017-05-12T16:02:14.902Z,942.25
2017-05-12T16:03:15.111Z,942.29
2017-05-12T16:04:15.347Z,942.28
2017-05-12T16:05:16.058Z,942.25
2017-05-12T16:06:15.032Z,942.26
2017-05-12T16:07:15.890Z,942.26
2017-05-12T16:08:15.219Z,942.28
2017-05-12T16:09:15.772Z,942.25
2017-05-12T16:10:15.051Z,942.27
2017-05-12T16:11:15.475Z,942.26
2017-05-12T16:12:16.120Z,942.24
2017-05-12T16:13:15.291Z,942.24
2017-05-12T16:14:16.331Z,942.20
2017-05-12T16:15:15.577Z,942.21
2017-05-12T16:16:15.797Z,942.20
2017-05-12T16:17:15.432Z,942.20
2017-05-12T16:18:15.916Z,942.22
2017-05-12T16:19:16.279Z,942.20
2017-05-12T16:20:15.312Z,942.17
2017-05-12T16:21:15.974Z,942.21
2017-05-12T16:22:14.926Z,942.21
2017-05-12T16:23:15.514Z,942.18
2017-05-12T16:24:15.788Z,942.15
2017-05-12T16:25:16.170Z,942.19
2017-05-12T16:26:15.461Z,942.22
2017-05-12T16:27:15.811Z,942.20
2017-05-12T16:28:12.514Z,942.16
2017-05-12T16:29:15.258Z,942.15
2017-05-12T16:30:15.261Z,942.21
2017-05-12T16:31:15.755Z,942.19
2017-05-12T16:32:14.699Z,942.17
2017-05-12T16:33:11.893Z,942.13
2017-05-12T16:34:16.279Z,942.10
2017-05-12T16:35:16.062Z,942.11
2017-05-12T16:36:15.379Z,942.11
2017-05-12T16:37:15.573Z,942.10
2017-05-12T16:38:15.642Z,942.10
2017-05-12T16:39:16.441Z,942.16
2017-05-12T16:40:16.196Z,942.15
2017-05-12T16:41:16.240Z,942.18
2017-05-12T16:42:16.644Z,942.19
2017-05-12T16:43:16.478Z,942.23
2017-05-12T16:44:17.912Z,942.25
2017-05-12T16:45:18.345Z,942.28
2017-05-12T16:46:12.499Z,942.25
2017-05-12T16:47:15.802Z,942.26
2017-05-12T16:48:15.610Z,942.27
2017-05-12T16:49:15.729Z,942.29
2017-05-12T16:50:15.236Z,942.29
2017-05-12T16:51:15.298Z,942.29
2017-05-12T16:52:15.478Z,942.27
2017-05-12T16:53:15.658Z,942.30
2017-05-12T16:54:14.961Z,942.31
2017-05-12T16:55:14.986Z,942.34
2017-05-12T16:56:15.555Z,942.32
2017-05-12T16:57:16.060Z,942.34
2017-05-12T16:58:15.461Z,942.30
2017-05-12T16:59:15.792Z,942.29
2017-05-12T17:00:15.270Z,942.31
2017-05-12T17:01:14.931Z,942.29
2017-05-12T17:02:16.197Z,942.31
2017-05-12T17:03:16.197Z,942.32
2017-05-12T17:04:15.191Z,942.33
2017-05-12T17:05:15.302Z,942.37
2017-05-12T17:06:16.226Z,942.37
2017-05-12T17:07:16.093Z,942.36
2017-05-12T17:08:15.213Z,942.33